Hurlburt Field, Florida
Current Conditions -  °F | °C
As of 10:13 PM on Saturday 20 Dec 2014 (Local Time) from KHRT Reporting Station
Broken Clouds Broken Clouds  
Wind Chill: 11°   Ceiling: 3700
Heat Index: 11°   Visibility: 10mi
Dew Point:   Wind: 10mph
Humidity: 88%   Direction: 40°NE
Pressure: 30.11"   Gusts: NA
Location:  30.43°N, 86.69°W
Report Text: KHRT 210413Z AUTO 04009KT 10SM FEW017 SCT029 BKN037 11/09 A3011 RMK AO2 CIG 029 RWY18 $
Loading
Personal Weather Stations






























Interactive Weather Map New forecast layout! Learn more

10-Day Weather Forecast

Advertisements
Track Severe Weather on mobile